Time;durP1;ratioP1;P1;durP2;ratioP2;P2;SDS_P1;SDS_P2;PMS_P1;PMS_P2;Temp;Humidity;BMP_temperature;BMP_pressure;BME280_temperature;BME280_humidity;BME280_pressure;Samples;Min_cycle;Max_cycle;Signal;HPM_P1;HPM_P2
2024/01/14 00:00:10;;;;;;;7.25;1.10;;;4.90;99.90;;;;;;5111979;28;20042;-84
2024/01/14 00:02:39;;;;;;;5.25;0.70;;;4.60;99.90;;;;;;5111897;28;20089;-84
2024/01/14 00:05:08;;;;;;;10.77;0.88;;;4.70;99.90;;;;;;5112251;28;20043;-84
2024/01/14 00:07:36;;;;;;;7.63;0.70;;;5.40;99.90;;;;;;5112195;28;20088;-84
2024/01/14 00:10:03;;;;;;;8.40;1.05;;;4.40;99.90;;;;;;5112135;28;20056;-84
2024/01/14 00:12:29;;;;;;;12.38;1.40;;;4.40;99.90;;;;;;5112624;28;20043;-84
2024/01/14 00:14:55;;;;;;;10.40;1.10;;;5.30;99.90;;;;;;5112436;28;20043;-83
2024/01/14 00:17:21;;;;;;;19.55;1.42;;;5.00;99.90;;;;;;5112107;28;20046;-84
2024/01/14 00:19:47;;;;;;;18.70;1.70;;;5.00;99.90;;;;;;5111784;28;20067;-84
2024/01/14 00:22:13;;;;;;;14.55;1.30;;;5.30;99.90;;;;;;5113293;28;20088;-83
2024/01/14 00:24:38;;;;;;;9.98;1.00;;;5.60;99.90;;;;;;5113120;28;20111;-83
2024/01/14 00:27:04;;;;;;;10.95;1.10;;;5.20;99.90;;;;;;5111503;28;20043;-83
2024/01/14 00:29:30;;;;;;;7.97;1.00;;;4.40;99.90;;;;;;5113362;28;20191;-84
2024/01/14 00:31:57;;;;;;;6.35;1.13;;;4.50;99.90;;;;;;5112410;28;20050;-83
2024/01/14 00:34:23;;;;;;;16.05;1.25;;;4.30;99.90;;;;;;5112704;28;20051;-83
2024/01/14 00:36:49;;;;;;;14.35;0.98;;;5.00;99.90;;;;;;5095048;28;20046;-82
2024/01/14 00:39:14;;;;;;;11.27;1.33;;;4.40;99.90;;;;;;5111838;28;20043;-83
2024/01/14 00:41:40;;;;;;;16.45;1.20;;;5.30;99.90;;;;;;5113194;28;20039;-83
2024/01/14 00:44:06;;;;;;;7.47;1.10;;;5.50;99.90;;;;;;5095046;28;20044;-83
2024/01/14 00:46:31;;;;;;;15.75;1.48;;;4.40;99.90;;;;;;5111531;28;20043;-83
2024/01/14 00:48:58;;;;;;;12.60;1.67;;;5.20;99.90;;;;;;5111695;28;20446;-83
2024/01/14 00:51:23;;;;;;;14.63;1.25;;;4.40;99.90;;;;;;5094871;28;20488;-82
2024/01/14 00:53:49;;;;;;;10.13;1.17;;;4.40;99.90;;;;;;5111620;28;20105;-82
2024/01/14 00:56:15;;;;;;;8.85;1.20;;;4.80;99.90;;;;;;5111522;28;20071;-82
2024/01/14 00:58:40;;;;;;;15.50;1.45;;;4.60;99.90;;;;;;5112825;28;20056;-83
2024/01/14 01:01:06;;;;;;;13.35;1.23;;;3.80;99.90;;;;;;5112114;28;20052;-82
2024/01/14 01:03:32;;;;;;;9.88;1.02;;;4.60;99.90;;;;;;5094493;28;20040;-84
2024/01/14 01:05:57;;;;;;;12.45;1.25;;;4.50;99.90;;;;;;5114446;28;20040;-84
2024/01/14 01:08:23;;;;;;;7.68;1.35;;;4.20;99.90;;;;;;5116924;28;20055;-84
2024/01/14 01:10:49;;;;;;;8.63;1.00;;;4.70;99.90;;;;;;5116852;27;20035;-83
2024/01/14 01:13:15;;;;;;;12.02;1.27;;;4.40;99.90;;;;;;5116467;28;20047;-83
2024/01/14 01:15:41;;;;;;;11.98;1.05;;;4.30;99.90;;;;;;5115869;28;20043;-84
2024/01/14 01:18:07;;;;;;;13.60;1.55;;;4.90;99.90;;;;;;5116196;28;20105;-82
2024/01/14 01:20:32;;;;;;;15.23;1.20;;;4.70;99.90;;;;;;5097800;28;20047;-83
2024/01/14 01:22:58;;;;;;;11.75;0.90;;;4.00;99.90;;;;;;5115138;28;20050;-83
2024/01/14 01:25:24;;;;;;;13.60;1.15;;;4.10;99.90;;;;;;5116169;28;20093;-84
2024/01/14 01:27:50;;;;;;;18.48;1.25;;;3.90;99.90;;;;;;5114890;28;20044;-83
2024/01/14 01:30:15;;;;;;;7.93;1.17;;;3.60;99.90;;;;;;5115111;28;20040;-83
2024/01/14 01:32:41;;;;;;;7.88;1.15;;;4.20;99.90;;;;;;5115010;28;20102;-83
2024/01/14 01:35:07;;;;;;;17.20;1.08;;;3.90;99.90;;;;;;5114964;28;20430;-83
2024/01/14 01:37:32;;;;;;;12.10;1.50;;;3.80;99.90;;;;;;5114697;28;20043;-82
2024/01/14 01:39:58;;;;;;;11.23;1.38;;;4.10;99.90;;;;;;5114450;28;20035;-83
2024/01/14 01:42:24;;;;;;;12.07;1.23;;;4.00;99.90;;;;;;5114908;28;20047;-83
2024/01/14 01:44:49;;;;;;;16.90;1.38;;;4.50;99.90;;;;;;5115239;28;20108;-83
2024/01/14 01:47:16;;;;;;;15.95;1.33;;;3.80;99.90;;;;;;5116412;28;20035;-83
2024/01/14 01:49:43;;;;;;;13.40;1.70;;;3.70;99.90;;;;;;5114048;28;20515;-83
2024/01/14 01:52:10;;;;;;;14.20;1.58;;;4.90;99.90;;;;;;5114469;28;20040;-84
2024/01/14 01:54:38;;;;;;;15.20;1.85;;;4.30;99.90;;;;;;5114222;28;20043;-83
2024/01/14 01:57:05;;;;;;;13.93;1.20;;;4.20;99.90;;;;;;5114265;28;20047;-84
2024/01/14 01:59:31;;;;;;;16.83;1.55;;;3.40;99.90;;;;;;5113944;28;20108;-84
2024/01/14 02:01:58;;;;;;;14.90;1.05;;;3.40;99.90;;;;;;5115828;28;20427;-82
2024/01/14 02:04:25;;;;;;;12.20;1.17;;;3.40;99.90;;;;;;5115613;28;20035;-82
2024/01/14 02:06:51;;;;;;;19.05;1.38;;;3.50;99.90;;;;;;5114290;28;20040;-83
2024/01/14 02:09:17;;;;;;;15.13;1.50;;;4.10;99.90;;;;;;5114151;28;20126;-84
2024/01/14 02:11:43;;;;;;;16.70;1.75;;;4.40;99.90;;;;;;5097203;28;20092;-83
2024/01/14 02:14:09;;;;;;;16.90;1.45;;;3.20;99.90;;;;;;5115272;28;20039;-84
2024/01/14 02:16:34;;;;;;;15.20;1.20;;;3.40;99.90;;;;;;5114154;28;20036;-83
2024/01/14 02:19:01;;;;;;;13.80;1.83;;;4.10;99.90;;;;;;5113355;28;20067;-85
2024/01/14 02:21:32;;;;;;;12.13;1.17;;;3.50;99.90;;;;;;5113792;28;20036;-84
2024/01/14 02:24:38;;;;;;;16.73;1.73;;;3.00;99.90;;;;;;5113967;28;20487;-82
2024/01/14 02:27:04;;;;;;;13.52;1.48;;;3.40;99.90;;;;;;5072429;28;20052;-83
2024/01/14 02:29:30;;;;;;;12.23;1.38;;;3.50;99.90;;;;;;5038813;28;20429;-85
2024/01/14 02:31:56;;;;;;;12.57;1.25;;;4.30;99.90;;;;;;5035903;28;20206;-83
2024/01/14 02:34:22;;;;;;;14.27;1.63;;;4.30;99.90;;;;;;5052422;28;20501;-83
2024/01/14 02:36:48;;;;;;;14.70;1.15;;;3.80;99.90;;;;;;5035576;28;20099;-83
2024/01/14 02:39:16;;;;;;;6.90;0.82;;;3.50;99.90;;;;;;5035251;28;20482;-83
2024/01/14 02:41:42;;;;;;;14.50;1.30;;;3.40;99.90;;;;;;5052125;28;20490;-82
2024/01/14 02:44:08;;;;;;;23.00;1.80;;;4.20;99.90;;;;;;5035444;28;20118;-83
2024/01/14 02:46:35;;;;;;;19.35;1.88;;;3.70;99.90;;;;;;5035230;28;20110;-82
2024/01/14 02:49:01;;;;;;;17.40;2.10;;;3.40;99.90;;;;;;5052023;28;20041;-82
2024/01/14 02:51:27;;;;;;;20.65;2.20;;;3.30;99.90;;;;;;5034788;28;20611;-82
2024/01/14 02:53:53;;;;;;;16.92;1.73;;;4.40;99.90;;;;;;5063669;28;20084;-82
2024/01/14 02:56:18;;;;;;;15.98;2.80;;;3.60;99.90;;;;;;5037025;28;20051;-83
2024/01/14 02:58:44;;;;;;;21.98;2.63;;;3.30;99.90;;;;;;5089579;28;20403;-82
2024/01/14 03:01:11;;;;;;;17.65;2.72;;;3.30;99.90;;;;;;5094258;28;20511;-83
2024/01/14 03:03:38;;;;;;;19.52;2.05;;;4.00;99.90;;;;;;5107611;28;20048;-82
2024/01/14 03:06:04;;;;;;;16.90;1.60;;;3.20;99.90;;;;;;5113762;28;20579;-82
2024/01/14 03:08:29;;;;;;;14.77;1.30;;;3.10;99.90;;;;;;5114191;28;20036;-82
2024/01/14 03:10:55;;;;;;;18.67;1.88;;;3.10;99.90;;;;;;5113072;28;20525;-82
2024/01/14 03:13:21;;;;;;;11.30;1.85;;;3.10;99.90;;;;;;5114393;28;20047;-83
2024/01/14 03:15:46;;;;;;;21.20;2.05;;;3.50;99.90;;;;;;5113237;28;20043;-84
2024/01/14 03:18:12;;;;;;;20.55;2.17;;;3.60;99.90;;;;;;5112682;28;20044;-82
2024/01/14 03:20:38;;;;;;;17.45;2.10;;;3.50;99.90;;;;;;5096031;28;20042;-82
2024/01/14 03:23:04;;;;;;;16.23;1.58;;;3.00;99.90;;;;;;5112510;28;20477;-83
2024/01/14 03:25:30;;;;;;;23.83;1.90;;;3.00;99.90;;;;;;5095620;28;20088;-83
2024/01/14 03:27:57;;;;;;;28.50;2.42;;;3.00;99.90;;;;;;5112239;28;20043;-82
2024/01/14 03:30:22;;;;;;;21.63;2.15;;;3.00;99.90;;;;;;5114026;28;20047;-83
2024/01/14 03:32:48;;;;;;;33.10;2.55;;;3.40;99.90;;;;;;5112641;28;20077;-83
2024/01/14 03:35:14;;;;;;;17.02;2.20;;;3.20;99.90;;;;;;5114119;28;20043;-83
2024/01/14 03:37:40;;;;;;;21.08;2.17;;;3.20;99.90;;;;;;5112183;28;20040;-83
2024/01/14 03:40:07;;;;;;;24.48;2.25;;;3.30;99.90;;;;;;5112540;28;20053;-83
2024/01/14 03:42:32;;;;;;;14.68;1.75;;;3.40;99.90;;;;;;5113655;28;20119;-84
2024/01/14 03:44:58;;;;;;;24.73;2.78;;;3.60;99.90;;;;;;5112492;28;20470;-82
2024/01/14 03:47:24;;;;;;;15.80;2.20;;;3.40;99.90;;;;;;5113667;28;20046;-83
2024/01/14 03:49:49;;;;;;;24.02;2.35;;;3.20;99.90;;;;;;5113887;28;20036;-83
2024/01/14 03:52:15;;;;;;;16.10;2.28;;;3.30;99.90;;;;;;5113641;28;20388;-82
2024/01/14 03:54:41;;;;;;;22.50;2.88;;;3.20;99.90;;;;;;5113827;28;20040;-83
2024/01/14 03:57:06;;;;;;;23.55;2.30;;;3.20;99.90;;;;;;5111241;28;20083;-82
2024/01/14 03:59:32;;;;;;;19.90;2.45;;;3.10;99.90;;;;;;5113345;28;20048;-83
2024/01/14 04:01:58;;;;;;;14.90;1.50;;;3.00;99.90;;;;;;5112399;28;20048;-83
2024/01/14 04:04:23;;;;;;;21.85;2.65;;;3.90;99.90;;;;;;5112114;28;20043;-82
2024/01/14 04:06:49;;;;;;;14.55;1.95;;;4.00;99.90;;;;;;5112324;28;20388;-83
2024/01/14 04:09:15;;;;;;;24.65;2.75;;;3.80;99.90;;;;;;5113567;28;20120;-84
2024/01/14 04:11:42;;;;;;;10.93;1.70;;;4.30;99.90;;;;;;5111887;28;20047;-82
2024/01/14 04:14:07;;;;;;;21.77;2.22;;;3.00;99.90;;;;;;5112207;28;20046;-84
2024/01/14 04:16:41;;;;;;;15.70;2.00;;;4.10;99.90;;;;;;5113067;28;20040;-82
2024/01/14 04:19:07;;;;;;;15.30;1.75;;;3.40;99.90;;;;;;5112073;28;20130;-83
2024/01/14 04:21:33;;;;;;;12.80;2.00;;;3.80;99.90;;;;;;5113515;28;20119;-82
2024/01/14 04:23:59;;;;;;;20.05;1.90;;;3.80;99.90;;;;;;5112063;28;20579;-82
2024/01/14 04:26:25;;;;;;;15.27;1.70;;;3.60;99.90;;;;;;5112164;28;20503;-82
2024/01/14 04:28:52;;;;;;;12.75;1.40;;;3.30;99.90;;;;;;5114096;28;20040;-83
2024/01/14 04:31:18;;;;;;;15.55;1.55;;;3.30;99.90;;;;;;5112228;28;20048;-83
2024/01/14 04:33:45;;;;;;;5.65;0.75;;;3.10;99.90;;;;;;5113331;28;20144;-82
2024/01/14 04:36:10;;;;;;;6.53;1.20;;;3.00;99.90;;;;;;5112109;28;20040;-82
2024/01/14 04:38:36;;;;;;;8.00;0.95;;;3.00;99.90;;;;;;5111561;28;20488;-81
2024/01/14 04:41:02;;;;;;;9.43;1.75;;;3.00;99.90;;;;;;5116157;28;20114;-83
2024/01/14 04:43:28;;;;;;;14.63;1.70;;;3.00;99.90;;;;;;5116333;28;20044;-86
2024/01/14 04:45:54;;;;;;;10.63;1.30;;;2.90;99.90;;;;;;5117244;28;20114;-84
2024/01/14 04:48:19;;;;;;;13.35;1.85;;;4.10;99.90;;;;;;5117158;28;20047;-83
2024/01/14 04:50:45;;;;;;;15.52;2.28;;;3.00;99.90;;;;;;5115643;28;20043;-86
2024/01/14 04:53:11;;;;;;;12.20;1.40;;;3.30;99.90;;;;;;5115166;28;20043;-84
2024/01/14 04:55:37;;;;;;;10.02;1.20;;;2.90;99.90;;;;;;5116152;28;20083;-83
2024/01/14 04:58:03;;;;;;;11.85;1.38;;;4.00;99.90;;;;;;5116291;28;20106;-84
2024/01/14 05:00:29;;;;;;;16.92;1.40;;;4.20;99.90;;;;;;5116040;28;20058;-83
2024/01/14 05:02:54;;;;;;;11.27;1.70;;;3.10;99.90;;;;;;5115526;28;20035;-82
2024/01/14 05:05:20;;;;;;;14.85;1.85;;;2.80;99.90;;;;;;5116830;28;20048;-84
2024/01/14 05:07:46;;;;;;;15.98;1.80;;;1.80;99.90;;;;;;5115694;28;20043;-84
2024/01/14 05:10:12;;;;;;;11.23;1.25;;;3.70;99.90;;;;;;5101450;28;20039;-83
2024/01/14 05:12:37;;;;;;;13.48;1.23;;;2.50;99.90;;;;;;5114209;28;20036;-83
2024/01/14 05:15:03;;;;;;;13.32;1.25;;;3.40;99.90;;;;;;5116185;28;20430;-84
2024/01/14 05:17:29;;;;;;;11.88;1.05;;;2.60;99.90;;;;;;5115912;28;20085;-84
2024/01/14 05:19:55;;;;;;;15.48;1.85;;;2.50;99.90;;;;;;5115430;28;20194;-86
2024/01/14 05:22:21;;;;;;;15.98;1.85;;;2.90;99.90;;;;;;5116741;28;20046;-83
2024/01/14 05:24:46;;;;;;;8.63;1.63;;;2.40;99.90;;;;;;5116148;28;20035;-85
2024/01/14 05:27:13;;;;;;;12.73;1.23;;;3.00;99.90;;;;;;5097917;28;20040;-84
2024/01/14 05:29:43;;;;;;;13.50;1.20;;;2.30;99.90;;;;;;5115041;28;20051;-86
2024/01/14 05:32:15;;;;;;;9.68;1.20;;;2.20;99.90;;;;;;5114709;28;20043;-83
2024/01/14 05:34:44;;;;;;;11.60;1.52;;;2.20;99.90;;;;;;5115963;28;20496;-83
2024/01/14 05:37:10;;;;;;;14.43;1.45;;;2.10;99.90;;;;;;5115869;28;20048;-83
2024/01/14 05:39:36;;;;;;;9.63;1.20;;;2.40;99.90;;;;;;5115039;28;20066;-83
2024/01/14 05:42:02;;;;;;;6.40;1.33;;;2.10;99.90;;;;;;5116129;28;20035;-82
2024/01/14 05:44:28;;;;;;;19.42;1.23;;;2.00;99.90;;;;;;5114515;28;20096;-88
2024/01/14 05:46:54;;;;;;;15.13;1.60;;;1.90;99.90;;;;;;5115370;28;20035;-86
2024/01/14 05:49:20;;;;;;;11.10;1.38;;;1.90;99.90;;;;;;5114749;28;20048;-83
2024/01/14 05:51:46;;;;;;;6.78;1.02;;;2.10;99.90;;;;;;5115882;28;20036;-83
2024/01/14 05:54:13;;;;;;;14.93;1.02;;;2.90;99.90;;;;;;5114762;28;20120;-84
2024/01/14 05:56:38;;;;;;;12.98;1.67;;;1.80;99.90;;;;;;5096997;28;20131;-84
2024/01/14 05:59:04;;;;;;;24.77;1.88;;;2.00;99.90;;;;;;5115076;28;20500;-83
2024/01/14 06:01:30;;;;;;;14.57;2.00;;;1.70;99.90;;;;;;5114238;28;20130;-83
2024/01/14 06:03:56;;;;;;;18.90;1.55;;;2.70;99.90;;;;;;5114082;28;20396;-83
2024/01/14 06:06:22;;;;;;;11.70;1.25;;;2.20;99.90;;;;;;5115390;28;20039;-85
2024/01/14 06:08:48;;;;;;;14.45;1.27;;;1.70;99.90;;;;;;5114539;28;20429;-84
2024/01/14 06:11:13;;;;;;;19.23;1.45;;;1.70;99.90;;;;;;5114556;28;20043;-83
2024/01/14 06:13:41;;;;;;;11.65;1.63;;;2.20;99.90;;;;;;5114608;28;20043;-83
2024/01/14 06:16:07;;;;;;;16.33;1.42;;;1.40;99.90;;;;;;5114404;28;20093;-84
2024/01/14 06:18:33;;;;;;;20.83;2.65;;;1.80;99.90;;;;;;5114560;28;20032;-83
2024/01/14 06:21:00;;;;;;;11.68;1.85;;;2.60;99.90;;;;;;5115209;28;20126;-83
2024/01/14 06:23:27;;;;;;;14.48;1.42;;;1.90;99.90;;;;;;5113873;28;20044;-83
2024/01/14 06:25:52;;;;;;;16.27;2.13;;;3.10;99.90;;;;;;5115413;28;20114;-83
2024/01/14 06:28:21;;;;;;;16.33;1.70;;;1.90;99.90;;;;;;5114098;28;20381;-83
2024/01/14 06:30:47;;;;;;;18.17;1.73;;;1.90;99.90;;;;;;5113933;28;20046;-82
2024/01/14 06:33:13;;;;;;;10.70;1.10;;;1.90;99.90;;;;;;5114078;28;20130;-84
2024/01/14 06:35:39;;;;;;;12.70;1.55;;;2.80;99.90;;;;;;5114661;28;20432;-85
2024/01/14 06:38:06;;;;;;;11.75;1.58;;;2.90;99.90;;;;;;5114741;28;20090;-83
2024/01/14 06:40:32;;;;;;;16.02;1.98;;;1.90;99.90;;;;;;5114445;28;20047;-83
2024/01/14 06:42:58;;;;;;;13.10;1.30;;;1.90;99.90;;;;;;5113906;28;20051;-84
2024/01/14 06:45:23;;;;;;;31.58;2.15;;;1.90;99.90;;;;;;5113658;28;20039;-83
2024/01/14 06:47:49;;;;;;;12.85;1.65;;;1.80;99.90;;;;;;5113188;28;20035;-83
2024/01/14 06:50:15;;;;;;;18.10;1.67;;;1.90;99.90;;;;;;5112687;28;20044;-82
2024/01/14 06:52:42;;;;;;;15.25;1.48;;;2.60;99.90;;;;;;5113376;28;20040;-83
2024/01/14 06:55:08;;;;;;;13.65;1.17;;;2.90;99.90;;;;;;5096441;28;20138;-83
2024/01/14 06:57:34;;;;;;;10.95;1.23;;;1.90;99.90;;;;;;5112993;28;20039;-82
2024/01/14 07:00:03;;;;;;;12.27;1.45;;;2.30;99.90;;;;;;5114085;28;20039;-84
2024/01/14 07:02:29;;;;;;;14.90;1.83;;;1.90;99.90;;;;;;5112146;28;20032;-83
2024/01/14 07:04:55;;;;;;;14.70;1.40;;;1.60;99.90;;;;;;5113438;28;20089;-83
2024/01/14 07:07:21;;;;;;;19.10;1.65;;;2.10;99.90;;;;;;5114356;28;20044;-82
2024/01/14 07:09:47;;;;;;;15.82;1.30;;;2.00;99.90;;;;;;5113091;28;20116;-83
2024/01/14 07:12:13;;;;;;;17.38;2.13;;;2.50;99.90;;;;;;5112889;28;20051;-84
2024/01/14 07:14:38;;;;;;;19.35;2.00;;;2.30;99.90;;;;;;5112554;28;20407;-84
2024/01/14 07:17:04;;;;;;;9.52;1.25;;;1.90;99.90;;;;;;5113138;28;20069;-82
2024/01/14 07:19:30;;;;;;;16.83;1.85;;;1.80;99.90;;;;;;5112882;28;20134;-84
2024/01/14 07:21:56;;;;;;;11.02;1.50;;;1.90;99.90;;;;;;5112843;28;20108;-84
2024/01/14 07:24:22;;;;;;;15.10;1.88;;;1.90;99.90;;;;;;5113469;28;20055;-84
2024/01/14 07:26:48;;;;;;;18.35;1.30;;;2.70;99.90;;;;;;5112809;28;20046;-83
2024/01/14 07:29:13;;;;;;;18.90;2.38;;;1.90;99.90;;;;;;5094516;28;20376;-85
2024/01/14 07:31:39;;;;;;;19.65;1.73;;;1.90;99.90;;;;;;5113103;28;20059;-83
2024/01/14 07:34:05;;;;;;;27.45;2.53;;;1.80;99.90;;;;;;5113656;28;20110;-84
2024/01/14 07:36:32;;;;;;;17.90;1.50;;;3.30;99.90;;;;;;5112164;28;20047;-83
2024/01/14 07:38:58;;;;;;;17.33;1.92;;;2.90;99.90;;;;;;5111016;28;20039;-85
2024/01/14 07:41:24;;;;;;;21.85;2.20;;;2.00;99.90;;;;;;5112824;28;20497;-83
2024/01/14 07:43:50;;;;;;;18.58;1.50;;;1.80;99.90;;;;;;5111478;28;20044;-84
2024/01/14 07:46:16;;;;;;;23.23;3.17;;;1.90;99.90;;;;;;5111885;28;20139;-83
2024/01/14 07:48:42;;;;;;;12.95;1.70;;;1.90;99.90;;;;;;5113810;28;20078;-83
2024/01/14 07:51:08;;;;;;;24.55;2.00;;;3.00;99.90;;;;;;5112813;28;20044;-85
2024/01/14 07:53:34;;;;;;;19.30;1.85;;;2.70;99.90;;;;;;5112213;28;20507;-84
2024/01/14 07:56:01;;;;;;;16.20;2.33;;;1.90;99.90;;;;;;5113747;28;20040;-83
2024/01/14 07:58:27;;;;;;;14.15;1.83;;;1.90;99.90;;;;;;5113774;28;20047;-85
2024/01/14 08:00:53;;;;;;;15.90;1.85;;;1.90;99.90;;;;;;5114199;28;20097;-84
2024/01/14 08:03:18;;;;;;;12.90;1.33;;;1.90;99.90;;;;;;5112957;28;20119;-84
2024/01/14 08:05:44;;;;;;;18.60;1.90;;;2.70;99.90;;;;;;5112075;28;20071;-83
2024/01/14 08:08:10;;;;;;;12.05;1.95;;;2.20;99.90;;;;;;5105815;28;20047;-83
2024/01/14 08:10:36;;;;;;;19.80;2.67;;;2.00;99.90;;;;;;5113439;28;20032;-85
2024/01/14 08:13:02;;;;;;;15.68;1.67;;;2.80;99.90;;;;;;5112965;28;20047;-83
2024/01/14 08:15:27;;;;;;;24.58;2.58;;;1.90;99.90;;;;;;5115665;28;20391;-85
2024/01/14 08:17:53;;;;;;;17.35;1.70;;;1.60;99.90;;;;;;5099493;28;20104;-84
2024/01/14 08:20:19;;;;;;;14.38;1.30;;;3.40;99.90;;;;;;5116492;28;20047;-84
2024/01/14 08:22:45;;;;;;;9.52;1.63;;;2.80;99.90;;;;;;5116152;28;20134;-83
2024/01/14 08:25:10;;;;;;;21.42;1.83;;;2.40;99.90;;;;;;5116471;28;20085;-85
2024/01/14 08:27:39;;;;;;;18.25;2.28;;;1.90;99.90;;;;;;5116225;28;20076;-84
2024/01/14 08:30:06;;;;;;;11.95;1.85;;;2.70;99.90;;;;;;5117210;28;20044;-84
2024/01/14 08:32:32;;;;;;;14.10;1.80;;;1.80;99.90;;;;;;5117323;27;20499;-84
2024/01/14 08:34:58;;;;;;;22.73;1.63;;;1.00;99.90;;;;;;5116147;28;20092;-84
2024/01/14 08:37:27;;;;;;;20.83;1.92;;;2.70;99.90;;;;;;5116056;28;20122;-83
2024/01/14 08:39:53;;;;;;;13.57;1.65;;;1.90;99.90;;;;;;5099254;28;20419;-84
2024/01/14 08:42:18;;;;;;;15.95;1.83;;;2.90;99.90;;;;;;5116293;28;20132;-83
2024/01/14 08:44:44;;;;;;;15.35;1.90;;;2.60;99.90;;;;;;5115879;28;20480;-83
2024/01/14 08:47:10;;;;;;;11.65;1.92;;;2.60;99.90;;;;;;5117153;28;20122;-84
2024/01/14 08:49:35;;;;;;;20.35;2.38;;;1.70;99.90;;;;;;5116224;28;20130;-85
2024/01/14 08:52:01;;;;;;;15.20;1.45;;;1.70;99.90;;;;;;5115620;28;20098;-84
2024/01/14 08:54:31;;;;;;;11.65;1.58;;;2.00;99.90;;;;;;5117193;28;20369;-84
2024/01/14 08:56:56;;;;;;;17.80;1.77;;;2.20;99.90;;;;;;5116929;28;20089;-84
2024/01/14 08:59:22;;;;;;;16.13;1.63;;;2.30;99.90;;;;;;5116773;28;20442;-83
2024/01/14 09:01:48;;;;;;;23.33;2.42;;;1.90;99.90;;;;;;5115578;28;20043;-84
2024/01/14 09:04:14;;;;;;;16.80;1.58;;;1.80;99.90;;;;;;5115683;28;20039;-84
2024/01/14 09:06:40;;;;;;;11.80;1.77;;;2.70;99.90;;;;;;5116764;28;20115;-84
2024/01/14 09:09:06;;;;;;;13.82;1.80;;;1.80;99.90;;;;;;5115737;28;20043;-84
2024/01/14 09:11:33;;;;;;;10.38;1.67;;;3.00;99.90;;;;;;5115464;28;20044;-84
2024/01/14 09:13:58;;;;;;;22.05;1.95;;;1.90;99.90;;;;;;5115885;28;20115;-84
2024/01/14 09:16:24;;;;;;;12.05;1.77;;;1.90;99.90;;;;;;5116450;28;20498;-83
2024/01/14 09:18:50;;;;;;;15.43;1.88;;;2.20;99.90;;;;;;5115408;28;20050;-84
2024/01/14 09:21:16;;;;;;;8.30;1.30;;;2.00;99.90;;;;;;5115306;28;20073;-85
2024/01/14 09:23:42;;;;;;;16.05;1.70;;;2.80;99.90;;;;;;5116729;28;20071;-84
2024/01/14 09:26:07;;;;;;;14.40;1.52;;;1.30;99.90;;;;;;5114531;28;20448;-86
2024/01/14 09:28:34;;;;;;;9.90;1.33;;;2.00;99.90;;;;;;5115830;28;20401;-89
2024/01/14 09:31:00;;;;;;;13.10;1.45;;;2.40;99.90;;;;;;5116061;28;20113;-89
2024/01/14 09:33:26;;;;;;;11.65;1.80;;;2.20;99.90;;;;;;5116128;28;20048;-89
2024/01/14 09:35:52;;;;;;;5.00;1.15;;;1.60;99.90;;;;;;5115832;28;20485;-90
2024/01/14 09:38:17;;;;;;;18.83;2.00;;;2.90;99.90;;;;;;5098954;28;20061;-90
2024/01/14 09:40:43;;;;;;;12.80;1.23;;;2.10;99.90;;;;;;5115916;28;20043;-86
2024/01/14 09:43:11;;;;;;;12.35;1.38;;;2.30;99.90;;;;;;5115460;28;20054;-87
2024/01/14 09:45:40;;;;;;;14.15;1.25;;;3.30;99.90;;;;;;5116074;28;20043;-85
2024/01/14 09:48:09;;;;;;;17.98;1.23;;;3.30;99.90;;;;;;5115289;28;20050;-87
2024/01/14 09:50:35;;;;;;;9.93;1.20;;;2.40;99.90;;;;;;5115983;28;20172;-83
2024/01/14 09:53:09;;;;;;;17.60;1.23;;;3.20;99.90;;;;;;5115848;28;20127;-83
2024/01/14 09:55:36;;;;;;;10.68;1.25;;;2.50;99.90;;;;;;5114421;28;20089;-91
2024/01/14 09:58:04;;;;;;;11.32;1.38;;;2.90;99.90;;;;;;5096134;28;20043;-88
2024/01/14 10:00:30;;;;;;;18.52;2.00;;;2.70;99.90;;;;;;5110456;28;20100;-89
2024/01/14 10:02:56;;;;;;;12.38;1.10;;;3.70;99.90;;;;;;5117001;27;20126;-89
2024/01/14 10:05:22;;;;;;;16.55;1.40;;;4.10;99.90;;;;;;5115809;28;20071;-88
2024/01/14 10:07:48;;;;;;;12.98;1.85;;;3.00;99.90;;;;;;5115075;28;20059;-87
2024/01/14 10:10:14;;;;;;;13.45;1.38;;;3.10;99.90;;;;;;5096250;28;20040;-88
2024/01/14 10:12:40;;;;;;;11.77;1.25;;;3.20;99.90;;;;;;5094671;28;20401;-89
2024/01/14 10:15:07;;;;;;;12.07;1.70;;;4.00;99.90;;;;;;5094632;28;20043;-87
2024/01/14 10:17:33;;;;;;;15.85;1.70;;;3.40;99.90;;;;;;5094449;28;20253;-88
2024/01/14 10:19:59;;;;;;;12.68;1.60;;;2.60;99.90;;;;;;5113166;28;20082;-87
2024/01/14 10:22:28;;;;;;;16.35;2.47;;;3.50;99.90;;;;;;5114273;28;20411;-87
2024/01/14 10:24:55;;;;;;;11.75;1.85;;;2.90;99.90;;;;;;5097390;28;20047;-89
2024/01/14 10:27:22;;;;;;;12.10;1.50;;;3.90;99.90;;;;;;5114246;28;20065;-85
2024/01/14 10:29:49;;;;;;;17.60;1.35;;;4.20;99.90;;;;;;5097710;28;20043;-89
2024/01/14 10:32:16;;;;;;;10.18;0.95;;;4.70;99.90;;;;;;5115583;28;20040;-87
2024/01/14 10:34:41;;;;;;;14.57;1.20;;;4.30;99.90;;;;;;5115382;28;20074;-88
2024/01/14 10:37:07;;;;;;;5.22;1.23;;;3.60;99.90;;;;;;5114336;28;20043;-88
2024/01/14 10:39:34;;;;;;;12.40;1.13;;;4.50;99.90;;;;;;5114921;28;20047;-87
2024/01/14 10:42:01;;;;;;;12.85;1.00;;;4.90;99.90;;;;;;5114657;28;20042;-87
2024/01/14 10:44:30;;;;;;;13.73;1.45;;;3.10;99.90;;;;;;5114171;28;20461;-90
2024/01/14 10:46:59;;;;;;;8.52;1.75;;;3.90;99.90;;;;;;5115342;27;20433;-89
2024/01/14 10:49:26;;;;;;;10.70;1.95;;;3.90;99.90;;;;;;5113844;28;20602;-87
2024/01/14 10:52:07;;;;;;;10.88;1.55;;;5.30;99.90;;;;;;5115094;28;20100;-88
2024/01/14 10:54:52;;;;;;;11.00;1.60;;;4.10;99.90;;;;;;5115030;28;20044;-87
2024/01/14 10:57:37;;;;;;;15.30;2.22;;;4.20;99.90;;;;;;5113488;28;20055;-89
2024/01/14 11:00:10;;;;;;;16.13;1.50;;;4.40;99.90;;;;;;5113576;28;20108;-89
2024/01/14 11:02:37;;;;;;;12.07;1.40;;;4.30;99.90;;;;;;5113983;28;20048;-88
2024/01/14 11:05:04;;;;;;;20.90;1.55;;;4.50;99.90;;;;;;5114073;28;20460;-88
2024/01/14 11:07:33;;;;;;;6.00;1.10;;;4.70;99.90;;;;;;5096939;28;20044;-89
2024/01/14 11:09:59;;;;;;;6.78;1.30;;;5.70;99.90;;;;;;5113233;28;20122;-87
2024/01/14 11:12:37;;;;;;;13.07;1.60;;;5.70;99.90;;;;;;5076423;28;20048;-86
2024/01/14 11:15:15;;;;;;;11.10;1.73;;;4.80;99.90;;;;;;5111281;28;20031;-90
2024/01/14 11:17:52;;;;;;;12.32;1.45;;;6.20;99.90;;;;;;5113093;28;20043;-86
2024/01/14 11:20:23;;;;;;;15.63;1.45;;;4.90;99.90;;;;;;5113472;28;20084;-89
2024/01/14 11:22:51;;;;;;;9.95;1.60;;;4.90;99.90;;;;;;5113903;28;20480;-87
2024/01/14 11:25:22;;;;;;;13.95;1.92;;;4.90;99.90;;;;;;5114022;28;20050;-86
2024/01/14 11:27:50;;;;;;;15.13;1.58;;;4.90;99.90;;;;;;5114191;28;20114;-86
2024/01/14 11:30:19;;;;;;;12.23;1.30;;;5.70;99.90;;;;;;5113085;28;20430;-86
2024/01/14 11:32:45;;;;;;;23.40;2.08;;;4.90;99.90;;;;;;5112399;28;20031;-84
2024/01/14 11:35:34;;;;;;;11.35;1.20;;;5.10;99.90;;;;;;5113729;28;20556;-84
2024/01/14 11:38:00;;;;;;;15.50;1.75;;;5.80;99.90;;;;;;5112656;28;20075;-84
2024/01/14 11:40:27;;;;;;;8.15;1.10;;;5.50;99.90;;;;;;5112182;28;20083;-84
2024/01/14 11:43:06;;;;;;;8.70;1.10;;;6.10;99.90;;;;;;5092577;28;20036;-83
2024/01/14 11:45:33;;;;;;;12.73;1.38;;;5.10;99.90;;;;;;5083839;28;20088;-84
2024/01/14 11:48:03;;;;;;;8.32;1.10;;;5.10;99.90;;;;;;5112602;28;20035;-84
2024/01/14 11:50:30;;;;;;;11.70;1.15;;;5.90;99.90;;;;;;5111849;28;20048;-84
2024/01/14 11:52:58;;;;;;;7.22;1.20;;;5.20;99.90;;;;;;5112376;28;20050;-83
2024/01/14 11:55:26;;;;;;;13.75;1.48;;;5.50;99.90;;;;;;5112539;28;20148;-82
2024/01/14 11:57:53;;;;;;;7.80;1.10;;;5.20;99.90;;;;;;5113587;28;20039;-85
2024/01/14 12:00:25;;;;;;;8.15;0.93;;;6.60;99.90;;;;;;5113529;27;20508;-85
2024/01/14 12:03:10;;;;;;;13.63;1.17;;;5.30;99.90;;;;;;5112238;28;20081;-83
2024/01/14 12:05:36;;;;;;;9.88;0.82;;;5.50;99.90;;;;;;5111996;28;20036;-84
2024/01/14 12:08:03;;;;;;;9.02;1.25;;;5.40;99.90;;;;;;5112383;28;20537;-83
2024/01/14 12:10:28;;;;;;;13.80;2.00;;;5.50;99.90;;;;;;5097265;28;20043;-84
2024/01/14 12:12:55;;;;;;;6.45;0.95;;;6.70;99.90;;;;;;5111868;28;20048;-84
2024/01/14 12:15:21;;;;;;;6.25;1.20;;;6.60;99.90;;;;;;5112613;28;20054;-83
2024/01/14 12:17:55;;;;;;;10.63;1.52;;;6.20;99.90;;;;;;5095028;28;20040;-85
2024/01/14 12:20:22;;;;;;;11.40;1.40;;;5.60;99.90;;;;;;5095379;28;20044;-83
2024/01/14 12:22:53;;;;;;;8.27;2.58;;;6.40;99.90;;;;;;5113664;28;20066;-85
2024/01/14 12:25:19;;;;;;;8.23;1.98;;;5.90;99.90;;;;;;5113364;28;20075;-83
2024/01/14 12:27:45;;;;;;;10.38;3.13;;;5.50;99.90;;;;;;5111324;28;20070;-84
2024/01/14 12:30:11;;;;;;;10.63;1.80;;;5.80;99.90;;;;;;5112074;28;20083;-84
2024/01/14 12:32:37;;;;;;;4.82;1.10;;;5.50;99.90;;;;;;5111396;28;20036;-82
2024/01/14 12:35:03;;;;;;;5.30;1.73;;;5.60;99.90;;;;;;5111998;28;20176;-84
2024/01/14 12:37:28;;;;;;;14.85;1.20;;;5.60;99.90;;;;;;5112098;28;20039;-84
2024/01/14 12:39:54;;;;;;;8.15;1.05;;;5.90;99.90;;;;;;5111504;28;20092;-85
2024/01/14 12:42:22;;;;;;;2.85;1.50;;;5.70;99.90;;;;;;5111941;28;20078;-86
2024/01/14 12:44:49;;;;;;;10.45;1.15;;;6.90;99.90;;;;;;5112048;28;20046;-84